sensor_id;sensor_type;location;lat;lon;timestamp;P1;durP1;ratioP1;P2;durP2;ratioP2
27744;SDS011;61387;48.112;8.616;2023-04-25T00:00:12;8.07;;;3.07;;
27744;SDS011;61387;48.112;8.616;2023-04-25T00:02:38;4.70;;;2.73;;
27744;SDS011;61387;48.112;8.616;2023-04-25T00:05:04;4.87;;;2.90;;
27744;SDS011;61387;48.112;8.616;2023-04-25T00:07:30;10.57;;;3.03;;
27744;SDS011;61387;48.112;8.616;2023-04-25T00:09:56;5.13;;;3.10;;
27744;SDS011;61387;48.112;8.616;2023-04-25T00:12:21;7.00;;;2.70;;
27744;SDS011;61387;48.112;8.616;2023-04-25T00:14:47;4.53;;;2.87;;
27744;SDS011;61387;48.112;8.616;2023-04-25T00:17:14;5.70;;;2.50;;
27744;SDS011;61387;48.112;8.616;2023-04-25T00:19:41;7.40;;;3.40;;
27744;SDS011;61387;48.112;8.616;2023-04-25T00:22:07;6.13;;;3.10;;
27744;SDS011;61387;48.112;8.616;2023-04-25T00:24:33;9.63;;;3.30;;
27744;SDS011;61387;48.112;8.616;2023-04-25T00:26:59;6.13;;;3.43;;
27744;SDS011;61387;48.112;8.616;2023-04-25T00:29:24;5.43;;;2.93;;
27744;SDS011;61387;48.112;8.616;2023-04-25T00:31:50;6.50;;;3.23;;
27744;SDS011;61387;48.112;8.616;2023-04-25T00:34:15;6.00;;;3.30;;
27744;SDS011;61387;48.112;8.616;2023-04-25T00:36:41;8.53;;;3.47;;
27744;SDS011;61387;48.112;8.616;2023-04-25T00:39:07;10.37;;;3.50;;
27744;SDS011;61387;48.112;8.616;2023-04-25T00:41:33;8.10;;;3.27;;
27744;SDS011;61387;48.112;8.616;2023-04-25T00:43:59;5.13;;;3.00;;
27744;SDS011;61387;48.112;8.616;2023-04-25T00:46:26;5.87;;;3.10;;
27744;SDS011;61387;48.112;8.616;2023-04-25T00:48:51;7.37;;;3.50;;
27744;SDS011;61387;48.112;8.616;2023-04-25T00:51:19;6.50;;;2.90;;
27744;SDS011;61387;48.112;8.616;2023-04-25T00:53:46;5.00;;;2.87;;
27744;SDS011;61387;48.112;8.616;2023-04-25T00:56:14;6.07;;;3.20;;
27744;SDS011;61387;48.112;8.616;2023-04-25T00:58:40;7.17;;;3.47;;
27744;SDS011;61387;48.112;8.616;2023-04-25T01:01:08;4.73;;;3.03;;
27744;SDS011;61387;48.112;8.616;2023-04-25T01:03:34;6.40;;;3.13;;
27744;SDS011;61387;48.112;8.616;2023-04-25T01:06:05;5.70;;;3.17;;
27744;SDS011;61387;48.112;8.616;2023-04-25T01:08:31;9.93;;;3.57;;
27744;SDS011;61387;48.112;8.616;2023-04-25T01:10:57;7.87;;;3.27;;
27744;SDS011;61387;48.112;8.616;2023-04-25T01:13:23;6.60;;;3.23;;
27744;SDS011;61387;48.112;8.616;2023-04-25T01:15:49;6.75;;;3.20;;
27744;SDS011;61387;48.112;8.616;2023-04-25T01:18:14;7.00;;;3.40;;
27744;SDS011;61387;48.112;8.616;2023-04-25T01:20:41;8.77;;;4.17;;
27744;SDS011;61387;48.112;8.616;2023-04-25T01:23:07;7.90;;;3.33;;
27744;SDS011;61387;48.112;8.616;2023-04-25T01:25:33;6.13;;;3.27;;
27744;SDS011;61387;48.112;8.616;2023-04-25T01:27:59;5.70;;;3.20;;
27744;SDS011;61387;48.112;8.616;2023-04-25T01:30:27;6.80;;;2.73;;
27744;SDS011;61387;48.112;8.616;2023-04-25T01:32:55;8.13;;;2.80;;
27744;SDS011;61387;48.112;8.616;2023-04-25T01:35:21;3.97;;;2.53;;
27744;SDS011;61387;48.112;8.616;2023-04-25T01:37:49;6.17;;;2.77;;
27744;SDS011;61387;48.112;8.616;2023-04-25T01:40:14;6.17;;;3.17;;
27744;SDS011;61387;48.112;8.616;2023-04-25T01:42:41;7.30;;;2.93;;
27744;SDS011;61387;48.112;8.616;2023-04-25T01:45:08;6.53;;;3.33;;
27744;SDS011;61387;48.112;8.616;2023-04-25T01:47:35;8.27;;;2.70;;
27744;SDS011;61387;48.112;8.616;2023-04-25T01:50:05;5.53;;;2.83;;
27744;SDS011;61387;48.112;8.616;2023-04-25T01:52:32;6.90;;;3.30;;
27744;SDS011;61387;48.112;8.616;2023-04-25T01:54:57;6.85;;;3.30;;
27744;SDS011;61387;48.112;8.616;2023-04-25T01:57:26;7.23;;;3.30;;
27744;SDS011;61387;48.112;8.616;2023-04-25T01:59:53;6.77;;;3.60;;
27744;SDS011;61387;48.112;8.616;2023-04-25T02:02:24;8.60;;;3.27;;
27744;SDS011;61387;48.112;8.616;2023-04-25T02:04:51;5.33;;;2.77;;
27744;SDS011;61387;48.112;8.616;2023-04-25T02:07:16;7.43;;;3.23;;
27744;SDS011;61387;48.112;8.616;2023-04-25T02:09:42;6.67;;;3.20;;
27744;SDS011;61387;48.112;8.616;2023-04-25T02:12:09;7.40;;;3.70;;
27744;SDS011;61387;48.112;8.616;2023-04-25T02:14:35;6.73;;;3.23;;
27744;SDS011;61387;48.112;8.616;2023-04-25T02:17:01;6.53;;;3.70;;
27744;SDS011;61387;48.112;8.616;2023-04-25T02:19:27;5.13;;;2.87;;
27744;SDS011;61387;48.112;8.616;2023-04-25T02:21:53;8.90;;;3.70;;
27744;SDS011;61387;48.112;8.616;2023-04-25T02:24:19;7.77;;;3.30;;
27744;SDS011;61387;48.112;8.616;2023-04-25T02:26:45;8.63;;;3.97;;
27744;SDS011;61387;48.112;8.616;2023-04-25T02:29:11;6.70;;;3.27;;
27744;SDS011;61387;48.112;8.616;2023-04-25T02:31:38;6.30;;;3.10;;
27744;SDS011;61387;48.112;8.616;2023-04-25T02:34:03;5.17;;;3.10;;
27744;SDS011;61387;48.112;8.616;2023-04-25T02:36:29;6.73;;;2.97;;
27744;SDS011;61387;48.112;8.616;2023-04-25T02:38:59;5.17;;;3.10;;
27744;SDS011;61387;48.112;8.616;2023-04-25T02:41:25;6.93;;;2.97;;
27744;SDS011;61387;48.112;8.616;2023-04-25T02:43:51;7.53;;;3.17;;
27744;SDS011;61387;48.112;8.616;2023-04-25T02:46:16;6.72;;;3.10;;
27744;SDS011;61387;48.112;8.616;2023-04-25T02:48:42;7.23;;;3.40;;
27744;SDS011;61387;48.112;8.616;2023-04-25T02:51:08;5.67;;;3.23;;
27744;SDS011;61387;48.112;8.616;2023-04-25T02:53:33;6.37;;;3.17;;
27744;SDS011;61387;48.112;8.616;2023-04-25T02:55:59;6.80;;;3.63;;
27744;SDS011;61387;48.112;8.616;2023-04-25T02:58:25;6.43;;;3.60;;
27744;SDS011;61387;48.112;8.616;2023-04-25T03:00:51;6.17;;;3.30;;
27744;SDS011;61387;48.112;8.616;2023-04-25T03:03:17;7.80;;;3.47;;
27744;SDS011;61387;48.112;8.616;2023-04-25T03:05:46;8.53;;;3.83;;
27744;SDS011;61387;48.112;8.616;2023-04-25T03:08:12;11.37;;;4.43;;
27744;SDS011;61387;48.112;8.616;2023-04-25T03:10:38;14.30;;;4.97;;
27744;SDS011;61387;48.112;8.616;2023-04-25T03:13:04;8.97;;;4.53;;
27744;SDS011;61387;48.112;8.616;2023-04-25T03:15:30;6.17;;;3.90;;
27744;SDS011;61387;48.112;8.616;2023-04-25T03:17:56;9.93;;;3.87;;
27744;SDS011;61387;48.112;8.616;2023-04-25T03:20:22;9.53;;;3.97;;
27744;SDS011;61387;48.112;8.616;2023-04-25T03:22:48;8.03;;;4.33;;
27744;SDS011;61387;48.112;8.616;2023-04-25T03:25:14;6.73;;;4.07;;
27744;SDS011;61387;48.112;8.616;2023-04-25T03:27:40;7.33;;;4.50;;
27744;SDS011;61387;48.112;8.616;2023-04-25T03:30:05;11.37;;;3.93;;
27744;SDS011;61387;48.112;8.616;2023-04-25T03:32:32;8.80;;;3.50;;
27744;SDS011;61387;48.112;8.616;2023-04-25T03:34:58;10.97;;;4.20;;
27744;SDS011;61387;48.112;8.616;2023-04-25T03:37:24;7.73;;;3.93;;
27744;SDS011;61387;48.112;8.616;2023-04-25T03:39:50;7.00;;;3.80;;
27744;SDS011;61387;48.112;8.616;2023-04-25T03:42:16;9.00;;;4.43;;
27744;SDS011;61387;48.112;8.616;2023-04-25T03:44:42;9.10;;;4.43;;
27744;SDS011;61387;48.112;8.616;2023-04-25T03:47:08;12.57;;;4.60;;
27744;SDS011;61387;48.112;8.616;2023-04-25T03:49:34;9.30;;;4.53;;
27744;SDS011;61387;48.112;8.616;2023-04-25T03:52:01;10.90;;;4.80;;
27744;SDS011;61387;48.112;8.616;2023-04-25T03:54:26;10.53;;;4.53;;
27744;SDS011;61387;48.112;8.616;2023-04-25T03:56:52;9.00;;;3.97;;
27744;SDS011;61387;48.112;8.616;2023-04-25T03:59:17;10.17;;;4.33;;
27744;SDS011;61387;48.112;8.616;2023-04-25T04:01:43;10.53;;;3.87;;
27744;SDS011;61387;48.112;8.616;2023-04-25T04:04:09;7.43;;;4.40;;
27744;SDS011;61387;48.112;8.616;2023-04-25T04:06:35;7.50;;;4.50;;
27744;SDS011;61387;48.112;8.616;2023-04-25T04:09:01;12.00;;;4.47;;
27744;SDS011;61387;48.112;8.616;2023-04-25T04:11:27;11.17;;;5.10;;
27744;SDS011;61387;48.112;8.616;2023-04-25T04:13:53;9.70;;;4.60;;
27744;SDS011;61387;48.112;8.616;2023-04-25T04:16:18;8.80;;;4.50;;
27744;SDS011;61387;48.112;8.616;2023-04-25T04:18:45;7.90;;;4.20;;
27744;SDS011;61387;48.112;8.616;2023-04-25T04:21:10;8.77;;;4.50;;
27744;SDS011;61387;48.112;8.616;2023-04-25T04:23:36;8.15;;;4.78;;
27744;SDS011;61387;48.112;8.616;2023-04-25T04:26:02;9.97;;;5.03;;
27744;SDS011;61387;48.112;8.616;2023-04-25T04:28:28;10.57;;;5.63;;
27744;SDS011;61387;48.112;8.616;2023-04-25T04:30:54;9.20;;;4.47;;
27744;SDS011;61387;48.112;8.616;2023-04-25T04:33:20;9.20;;;4.23;;
27744;SDS011;61387;48.112;8.616;2023-04-25T04:35:46;6.82;;;4.00;;
27744;SDS011;61387;48.112;8.616;2023-04-25T04:38:12;7.63;;;4.13;;
27744;SDS011;61387;48.112;8.616;2023-04-25T04:40:40;6.73;;;3.60;;
27744;SDS011;61387;48.112;8.616;2023-04-25T04:43:08;10.73;;;4.20;;
27744;SDS011;61387;48.112;8.616;2023-04-25T04:45:35;8.37;;;3.50;;
27744;SDS011;61387;48.112;8.616;2023-04-25T04:48:04;6.80;;;3.70;;
27744;SDS011;61387;48.112;8.616;2023-04-25T04:50:30;7.10;;;3.57;;
27744;SDS011;61387;48.112;8.616;2023-04-25T04:52:57;6.60;;;3.67;;
27744;SDS011;61387;48.112;8.616;2023-04-25T04:55:23;10.82;;;4.47;;
27744;SDS011;61387;48.112;8.616;2023-04-25T04:57:48;7.93;;;4.73;;
27744;SDS011;61387;48.112;8.616;2023-04-25T05:00:15;6.73;;;3.70;;
27744;SDS011;61387;48.112;8.616;2023-04-25T05:02:40;6.57;;;3.70;;
27744;SDS011;61387;48.112;8.616;2023-04-25T05:05:06;7.67;;;4.20;;
27744;SDS011;61387;48.112;8.616;2023-04-25T05:07:32;7.80;;;3.90;;
27744;SDS011;61387;48.112;8.616;2023-04-25T05:09:58;9.03;;;3.77;;
27744;SDS011;61387;48.112;8.616;2023-04-25T05:12:24;7.53;;;4.17;;
27744;SDS011;61387;48.112;8.616;2023-04-25T05:14:50;6.63;;;3.60;;
27744;SDS011;61387;48.112;8.616;2023-04-25T05:17:15;6.57;;;3.63;;
27744;SDS011;61387;48.112;8.616;2023-04-25T05:19:41;5.17;;;3.37;;
27744;SDS011;61387;48.112;8.616;2023-04-25T05:22:07;6.57;;;3.50;;
27744;SDS011;61387;48.112;8.616;2023-04-25T05:24:33;6.50;;;3.47;;
27744;SDS011;61387;48.112;8.616;2023-04-25T05:26:59;6.27;;;3.80;;
27744;SDS011;61387;48.112;8.616;2023-04-25T05:29:24;7.03;;;3.60;;
27744;SDS011;61387;48.112;8.616;2023-04-25T05:31:50;7.77;;;3.90;;
27744;SDS011;61387;48.112;8.616;2023-04-25T05:34:16;5.67;;;3.50;;
27744;SDS011;61387;48.112;8.616;2023-04-25T05:36:42;4.97;;;3.50;;
27744;SDS011;61387;48.112;8.616;2023-04-25T05:39:08;8.57;;;3.60;;
27744;SDS011;61387;48.112;8.616;2023-04-25T05:41:33;7.00;;;4.23;;
27744;SDS011;61387;48.112;8.616;2023-04-25T05:43:59;7.33;;;3.93;;
27744;SDS011;61387;48.112;8.616;2023-04-25T05:46:25;24.50;;;11.93;;
27744;SDS011;61387;48.112;8.616;2023-04-25T05:48:51;9.97;;;5.40;;
27744;SDS011;61387;48.112;8.616;2023-04-25T05:51:17;11.63;;;6.50;;
27744;SDS011;61387;48.112;8.616;2023-04-25T05:53:43;9.10;;;4.80;;
27744;SDS011;61387;48.112;8.616;2023-04-25T05:56:09;10.03;;;4.90;;
27744;SDS011;61387;48.112;8.616;2023-04-25T05:58:35;10.47;;;5.87;;
27744;SDS011;61387;48.112;8.616;2023-04-25T06:01:01;10.90;;;5.57;;
27744;SDS011;61387;48.112;8.616;2023-04-25T06:03:27;10.63;;;5.97;;
27744;SDS011;61387;48.112;8.616;2023-04-25T06:05:53;12.50;;;6.03;;
27744;SDS011;61387;48.112;8.616;2023-04-25T06:08:19;12.47;;;6.50;;
27744;SDS011;61387;48.112;8.616;2023-04-25T06:10:45;8.17;;;4.33;;
27744;SDS011;61387;48.112;8.616;2023-04-25T06:13:10;8.20;;;4.50;;
27744;SDS011;61387;48.112;8.616;2023-04-25T06:15:36;10.00;;;3.90;;
27744;SDS011;61387;48.112;8.616;2023-04-25T06:18:02;8.93;;;4.03;;
27744;SDS011;61387;48.112;8.616;2023-04-25T06:20:27;8.87;;;4.10;;
27744;SDS011;61387;48.112;8.616;2023-04-25T06:22:53;16.60;;;4.50;;
27744;SDS011;61387;48.112;8.616;2023-04-25T06:25:19;11.17;;;4.30;;
27744;SDS011;61387;48.112;8.616;2023-04-25T06:27:45;11.07;;;4.03;;
27744;SDS011;61387;48.112;8.616;2023-04-25T06:30:10;8.43;;;4.10;;
27744;SDS011;61387;48.112;8.616;2023-04-25T06:32:37;12.17;;;4.37;;
27744;SDS011;61387;48.112;8.616;2023-04-25T06:35:03;14.53;;;9.20;;
27744;SDS011;61387;48.112;8.616;2023-04-25T06:37:29;12.83;;;6.40;;
27744;SDS011;61387;48.112;8.616;2023-04-25T06:39:55;10.83;;;5.50;;
27744;SDS011;61387;48.112;8.616;2023-04-25T06:42:21;11.40;;;5.93;;
27744;SDS011;61387;48.112;8.616;2023-04-25T06:44:47;11.07;;;5.30;;
27744;SDS011;61387;48.112;8.616;2023-04-25T06:47:12;9.57;;;5.13;;
27744;SDS011;61387;48.112;8.616;2023-04-25T06:49:38;5.73;;;4.13;;
27744;SDS011;61387;48.112;8.616;2023-04-25T06:52:03;13.50;;;5.37;;
27744;SDS011;61387;48.112;8.616;2023-04-25T06:54:29;10.43;;;4.47;;
27744;SDS011;61387;48.112;8.616;2023-04-25T06:56:55;11.10;;;4.90;;
27744;SDS011;61387;48.112;8.616;2023-04-25T06:59:21;9.63;;;5.13;;
27744;SDS011;61387;48.112;8.616;2023-04-25T07:01:47;10.00;;;4.70;;
27744;SDS011;61387;48.112;8.616;2023-04-25T07:04:15;6.57;;;4.30;;
27744;SDS011;61387;48.112;8.616;2023-04-25T07:06:40;9.97;;;5.20;;
27744;SDS011;61387;48.112;8.616;2023-04-25T07:09:08;8.70;;;4.90;;
27744;SDS011;61387;48.112;8.616;2023-04-25T07:11:35;13.37;;;4.80;;
27744;SDS011;61387;48.112;8.616;2023-04-25T07:14:01;9.30;;;4.63;;
27744;SDS011;61387;48.112;8.616;2023-04-25T07:16:27;7.57;;;4.60;;
27744;SDS011;61387;48.112;8.616;2023-04-25T07:18:52;12.35;;;5.18;;
27744;SDS011;61387;48.112;8.616;2023-04-25T07:21:18;9.23;;;5.20;;
27744;SDS011;61387;48.112;8.616;2023-04-25T07:23:44;6.87;;;3.90;;
27744;SDS011;61387;48.112;8.616;2023-04-25T07:26:10;8.73;;;4.90;;
27744;SDS011;61387;48.112;8.616;2023-04-25T07:28:36;7.17;;;4.10;;
27744;SDS011;61387;48.112;8.616;2023-04-25T07:31:02;7.13;;;3.53;;
27744;SDS011;61387;48.112;8.616;2023-04-25T07:33:28;7.37;;;3.47;;
27744;SDS011;61387;48.112;8.616;2023-04-25T07:35:53;8.80;;;4.57;;
27744;SDS011;61387;48.112;8.616;2023-04-25T07:38:20;9.90;;;4.27;;
27744;SDS011;61387;48.112;8.616;2023-04-25T07:40:47;8.60;;;3.70;;
27744;SDS011;61387;48.112;8.616;2023-04-25T07:43:13;7.90;;;4.20;;
27744;SDS011;61387;48.112;8.616;2023-04-25T07:45:42;6.33;;;3.70;;
27744;SDS011;61387;48.112;8.616;2023-04-25T07:48:08;9.17;;;4.10;;
27744;SDS011;61387;48.112;8.616;2023-04-25T07:50:34;9.13;;;4.53;;
27744;SDS011;61387;48.112;8.616;2023-04-25T07:53:00;9.80;;;4.60;;
27744;SDS011;61387;48.112;8.616;2023-04-25T07:55:25;6.60;;;3.40;;
27744;SDS011;61387;48.112;8.616;2023-04-25T07:57:52;7.47;;;3.70;;
27744;SDS011;61387;48.112;8.616;2023-04-25T08:00:18;5.77;;;3.50;;
27744;SDS011;61387;48.112;8.616;2023-04-25T08:02:44;9.97;;;4.87;;
27744;SDS011;61387;48.112;8.616;2023-04-25T08:05:10;15.50;;;8.00;;
27744;SDS011;61387;48.112;8.616;2023-04-25T08:07:39;10.83;;;5.67;;
27744;SDS011;61387;48.112;8.616;2023-04-25T08:10:05;9.00;;;4.77;;
27744;SDS011;61387;48.112;8.616;2023-04-25T08:12:31;10.37;;;5.87;;
27744;SDS011;61387;48.112;8.616;2023-04-25T08:14:57;7.43;;;3.80;;
27744;SDS011;61387;48.112;8.616;2023-04-25T08:17:23;14.10;;;7.47;;
27744;SDS011;61387;48.112;8.616;2023-04-25T08:19:48;8.33;;;5.17;;
27744;SDS011;61387;48.112;8.616;2023-04-25T08:22:15;6.00;;;3.17;;
27744;SDS011;61387;48.112;8.616;2023-04-25T08:24:41;5.87;;;3.03;;
27744;SDS011;61387;48.112;8.616;2023-04-25T08:27:07;3.97;;;2.70;;
27744;SDS011;61387;48.112;8.616;2023-04-25T08:29:33;5.93;;;3.50;;
27744;SDS011;61387;48.112;8.616;2023-04-25T08:31:59;5.20;;;2.77;;
27744;SDS011;61387;48.112;8.616;2023-04-25T08:34:25;5.37;;;3.10;;
27744;SDS011;61387;48.112;8.616;2023-04-25T08:36:51;6.13;;;3.63;;
27744;SDS011;61387;48.112;8.616;2023-04-25T08:39:17;3.03;;;2.20;;
27744;SDS011;61387;48.112;8.616;2023-04-25T08:41:43;5.33;;;2.87;;
27744;SDS011;61387;48.112;8.616;2023-04-25T08:44:10;5.27;;;3.03;;
27744;SDS011;61387;48.112;8.616;2023-04-25T08:46:37;4.87;;;2.23;;
27744;SDS011;61387;48.112;8.616;2023-04-25T08:49:07;4.93;;;2.80;;
27744;SDS011;61387;48.112;8.616;2023-04-25T08:51:37;5.17;;;2.30;;
27744;SDS011;61387;48.112;8.616;2023-04-25T08:54:11;3.83;;;1.93;;
27744;SDS011;61387;48.112;8.616;2023-04-25T08:56:39;5.53;;;3.00;;
27744;SDS011;61387;48.112;8.616;2023-04-25T08:59:08;11.03;;;4.50;;
27744;SDS011;61387;48.112;8.616;2023-04-25T09:01:35;4.87;;;2.07;;
27744;SDS011;61387;48.112;8.616;2023-04-25T09:04:01;7.10;;;3.63;;
27744;SDS011;61387;48.112;8.616;2023-04-25T09:06:28;3.00;;;1.73;;
27744;SDS011;61387;48.112;8.616;2023-04-25T09:08:54;4.27;;;2.10;;
27744;SDS011;61387;48.112;8.616;2023-04-25T09:11:20;3.40;;;1.97;;
27744;SDS011;61387;48.112;8.616;2023-04-25T09:13:46;7.30;;;3.00;;
27744;SDS011;61387;48.112;8.616;2023-04-25T09:16:12;6.47;;;2.03;;
27744;SDS011;61387;48.112;8.616;2023-04-25T09:18:42;4.47;;;2.00;;
27744;SDS011;61387;48.112;8.616;2023-04-25T09:21:09;6.20;;;2.37;;
27744;SDS011;61387;48.112;8.616;2023-04-25T09:23:46;3.37;;;1.20;;
27744;SDS011;61387;48.112;8.616;2023-04-25T09:26:17;2.87;;;1.00;;
27744;SDS011;61387;48.112;8.616;2023-04-25T09:28:44;5.33;;;1.70;;
27744;SDS011;61387;48.112;8.616;2023-04-25T09:31:10;1.40;;;0.77;;
27744;SDS011;61387;48.112;8.616;2023-04-25T09:33:37;0.70;;;0.30;;
27744;SDS011;61387;48.112;8.616;2023-04-25T09:36:07;2.40;;;0.67;;
27744;SDS011;61387;48.112;8.616;2023-04-25T09:38:41;0.73;;;0.50;;
27744;SDS011;61387;48.112;8.616;2023-04-25T09:41:07;0.50;;;0.20;;
27744;SDS011;61387;48.112;8.616;2023-04-25T09:43:33;0.00;;;0.00;;
27744;SDS011;61387;48.112;8.616;2023-04-25T09:46:00;0.10;;;0.10;;
27744;SDS011;61387;48.112;8.616;2023-04-25T09:48:26;0.57;;;0.20;;
27744;SDS011;61387;48.112;8.616;2023-04-25T09:51:06;0.23;;;0.20;;
27744;SDS011;61387;48.112;8.616;2023-04-25T09:53:33;0.10;;;0.10;;
27744;SDS011;61387;48.112;8.616;2023-04-25T09:56:00;0.17;;;0.10;;
27744;SDS011;61387;48.112;8.616;2023-04-25T09:58:30;0.00;;;0.00;;
27744;SDS011;61387;48.112;8.616;2023-04-25T10:00:58;0.10;;;0.10;;
27744;SDS011;61387;48.112;8.616;2023-04-25T10:03:26;0.00;;;0.00;;
27744;SDS011;61387;48.112;8.616;2023-04-25T10:05:52;0.23;;;0.10;;
27744;SDS011;61387;48.112;8.616;2023-04-25T10:08:19;0.17;;;0.10;;
27744;SDS011;61387;48.112;8.616;2023-04-25T10:10:45;0.40;;;0.20;;
27744;SDS011;61387;48.112;8.616;2023-04-25T10:13:13;0.40;;;0.30;;
27744;SDS011;61387;48.112;8.616;2023-04-25T10:15:40;0.10;;;0.00;;
27744;SDS011;61387;48.112;8.616;2023-04-25T10:18:06;0.57;;;0.20;;
27744;SDS011;61387;48.112;8.616;2023-04-25T10:20:32;0.00;;;0.00;;
27744;SDS011;61387;48.112;8.616;2023-04-25T10:23:03;0.57;;;0.20;;
27744;SDS011;61387;48.112;8.616;2023-04-25T10:25:36;0.17;;;0.03;;
27744;SDS011;61387;48.112;8.616;2023-04-25T10:28:03;0.03;;;0.00;;
27744;SDS011;61387;48.112;8.616;2023-04-25T10:30:28;0.70;;;0.13;;
27744;SDS011;61387;48.112;8.616;2023-04-25T10:32:55;0.60;;;0.10;;
27744;SDS011;61387;48.112;8.616;2023-04-25T10:35:25;0.10;;;0.10;;
27744;SDS011;61387;48.112;8.616;2023-04-25T10:37:56;0.80;;;0.50;;
27744;SDS011;61387;48.112;8.616;2023-04-25T10:40:35;0.30;;;0.20;;
27744;SDS011;61387;48.112;8.616;2023-04-25T10:43:33;0.80;;;0.40;;
27744;SDS011;61387;48.112;8.616;2023-04-25T10:46:00;0.67;;;0.30;;
27744;SDS011;61387;48.112;8.616;2023-04-25T10:48:28;0.40;;;0.20;;
27744;SDS011;61387;48.112;8.616;2023-04-25T10:51:11;0.43;;;0.30;;
27744;SDS011;61387;48.112;8.616;2023-04-25T10:54:02;0.30;;;0.10;;
27744;SDS011;61387;48.112;8.616;2023-04-25T10:56:33;1.20;;;0.10;;
27744;SDS011;61387;48.112;8.616;2023-04-25T11:07:10;1.63;;;0.67;;
27744;SDS011;61387;48.112;8.616;2023-04-25T11:09:45;0.73;;;0.20;;
27744;SDS011;61387;48.112;8.616;2023-04-25T11:12:10;0.47;;;0.27;;
27744;SDS011;61387;48.112;8.616;2023-04-25T11:14:37;0.63;;;0.07;;
27744;SDS011;61387;48.112;8.616;2023-04-25T11:17:04;0.10;;;0.10;;
27744;SDS011;61387;48.112;8.616;2023-04-25T11:19:30;0.90;;;0.30;;
27744;SDS011;61387;48.112;8.616;2023-04-25T11:21:56;2.50;;;0.97;;
27744;SDS011;61387;48.112;8.616;2023-04-25T11:24:40;1.70;;;0.70;;
27744;SDS011;61387;48.112;8.616;2023-04-25T11:27:07;1.53;;;0.43;;
27744;SDS011;61387;48.112;8.616;2023-04-25T11:29:33;1.20;;;0.60;;
27744;SDS011;61387;48.112;8.616;2023-04-25T11:32:00;1.87;;;1.10;;
27744;SDS011;61387;48.112;8.616;2023-04-25T11:34:27;0.97;;;0.80;;
27744;SDS011;61387;48.112;8.616;2023-04-25T11:36:57;1.00;;;0.80;;
27744;SDS011;61387;48.112;8.616;2023-04-25T11:39:24;1.40;;;0.83;;
27744;SDS011;61387;48.112;8.616;2023-04-25T11:41:51;1.17;;;0.67;;
27744;SDS011;61387;48.112;8.616;2023-04-25T11:44:17;0.67;;;0.50;;
27744;SDS011;61387;48.112;8.616;2023-04-25T11:46:43;1.50;;;1.10;;
27744;SDS011;61387;48.112;8.616;2023-04-25T11:49:09;1.43;;;0.80;;
27744;SDS011;61387;48.112;8.616;2023-04-25T11:51:38;0.67;;;0.57;;
27744;SDS011;61387;48.112;8.616;2023-04-25T11:54:05;2.40;;;1.00;;
27744;SDS011;61387;48.112;8.616;2023-04-25T11:56:31;0.77;;;0.57;;
27744;SDS011;61387;48.112;8.616;2023-04-25T11:59:01;0.87;;;0.77;;
27744;SDS011;61387;48.112;8.616;2023-04-25T12:01:29;3.90;;;2.07;;
27744;SDS011;61387;48.112;8.616;2023-04-25T12:04:18;1.30;;;0.97;;
27744;SDS011;61387;48.112;8.616;2023-04-25T12:06:46;2.97;;;1.80;;
27744;SDS011;61387;48.112;8.616;2023-04-25T12:09:12;1.87;;;1.30;;
27744;SDS011;61387;48.112;8.616;2023-04-25T12:14:09;1.90;;;0.90;;
27744;SDS011;61387;48.112;8.616;2023-04-25T12:16:42;1.47;;;1.20;;
27744;SDS011;61387;48.112;8.616;2023-04-25T12:19:09;2.03;;;1.20;;
27744;SDS011;61387;48.112;8.616;2023-04-25T12:21:35;1.97;;;1.00;;
27744;SDS011;61387;48.112;8.616;2023-04-25T12:24:09;5.00;;;1.20;;
27744;SDS011;61387;48.112;8.616;2023-04-25T12:26:50;3.60;;;1.80;;
27744;SDS011;61387;48.112;8.616;2023-04-25T12:29:27;2.20;;;1.23;;
27744;SDS011;61387;48.112;8.616;2023-04-25T12:31:56;3.10;;;1.57;;
27744;SDS011;61387;48.112;8.616;2023-04-25T12:34:22;2.27;;;1.10;;
27744;SDS011;61387;48.112;8.616;2023-04-25T12:36:49;1.60;;;1.07;;
27744;SDS011;61387;48.112;8.616;2023-04-25T12:39:19;2.00;;;1.30;;
27744;SDS011;61387;48.112;8.616;2023-04-25T12:41:49;1.00;;;0.90;;
27744;SDS011;61387;48.112;8.616;2023-04-25T12:44:17;2.27;;;0.73;;
27744;SDS011;61387;48.112;8.616;2023-04-25T12:46:43;2.43;;;1.20;;
27744;SDS011;61387;48.112;8.616;2023-04-25T12:49:10;1.93;;;1.20;;
27744;SDS011;61387;48.112;8.616;2023-04-25T12:51:35;1.43;;;1.20;;
27744;SDS011;61387;48.112;8.616;2023-04-25T12:54:02;1.37;;;0.80;;
27744;SDS011;61387;48.112;8.616;2023-04-25T12:56:29;1.37;;;0.77;;
27744;SDS011;61387;48.112;8.616;2023-04-25T12:58:55;2.27;;;1.47;;
27744;SDS011;61387;48.112;8.616;2023-04-25T13:01:21;2.30;;;1.03;;
27744;SDS011;61387;48.112;8.616;2023-04-25T13:03:47;2.13;;;1.03;;
27744;SDS011;61387;48.112;8.616;2023-04-25T13:06:13;2.73;;;0.70;;
27744;SDS011;61387;48.112;8.616;2023-04-25T13:08:40;1.73;;;1.00;;
27744;SDS011;61387;48.112;8.616;2023-04-25T13:11:06;1.33;;;0.77;;
27744;SDS011;61387;48.112;8.616;2023-04-25T13:13:32;1.23;;;1.13;;
27744;SDS011;61387;48.112;8.616;2023-04-25T13:16:02;1.63;;;0.80;;
27744;SDS011;61387;48.112;8.616;2023-04-25T13:18:29;2.83;;;0.87;;
27744;SDS011;61387;48.112;8.616;2023-04-25T13:20:55;1.83;;;1.30;;
27744;SDS011;61387;48.112;8.616;2023-04-25T13:23:21;3.43;;;1.47;;
27744;SDS011;61387;48.112;8.616;2023-04-25T13:25:48;1.73;;;1.07;;
27744;SDS011;61387;48.112;8.616;2023-04-25T13:28:13;1.80;;;1.40;;
27744;SDS011;61387;48.112;8.616;2023-04-25T13:30:39;2.70;;;1.27;;
27744;SDS011;61387;48.112;8.616;2023-04-25T13:33:05;1.80;;;1.40;;
27744;SDS011;61387;48.112;8.616;2023-04-25T13:35:32;1.80;;;1.47;;
27744;SDS011;61387;48.112;8.616;2023-04-25T13:37:59;1.80;;;1.07;;
27744;SDS011;61387;48.112;8.616;2023-04-25T13:40:25;1.57;;;1.30;;
27744;SDS011;61387;48.112;8.616;2023-04-25T13:42:51;1.67;;;1.30;;
27744;SDS011;61387;48.112;8.616;2023-04-25T13:45:17;1.97;;;1.30;;
27744;SDS011;61387;48.112;8.616;2023-04-25T13:47:43;2.37;;;1.03;;
27744;SDS011;61387;48.112;8.616;2023-04-25T13:50:09;1.37;;;1.00;;
27744;SDS011;61387;48.112;8.616;2023-04-25T13:52:35;2.93;;;1.10;;
27744;SDS011;61387;48.112;8.616;2023-04-25T13:55:01;1.40;;;1.13;;
27744;SDS011;61387;48.112;8.616;2023-04-25T13:57:28;1.37;;;1.27;;
27744;SDS011;61387;48.112;8.616;2023-04-25T13:59:55;3.23;;;1.27;;
27744;SDS011;61387;48.112;8.616;2023-04-25T14:02:20;1.13;;;1.10;;
27744;SDS011;61387;48.112;8.616;2023-04-25T14:04:46;2.60;;;1.13;;
27744;SDS011;61387;48.112;8.616;2023-04-25T14:07:13;1.83;;;1.00;;
27744;SDS011;61387;48.112;8.616;2023-04-25T14:09:41;0.63;;;0.63;;
27744;SDS011;61387;48.112;8.616;2023-04-25T14:12:07;1.23;;;0.80;;
27744;SDS011;61387;48.112;8.616;2023-04-25T14:14:32;2.50;;;0.90;;
27744;SDS011;61387;48.112;8.616;2023-04-25T14:16:58;1.87;;;0.80;;
27744;SDS011;61387;48.112;8.616;2023-04-25T14:19:24;4.40;;;1.73;;
27744;SDS011;61387;48.112;8.616;2023-04-25T14:21:50;5.37;;;2.07;;
27744;SDS011;61387;48.112;8.616;2023-04-25T14:24:16;1.70;;;0.90;;
27744;SDS011;61387;48.112;8.616;2023-04-25T14:26:42;1.93;;;0.97;;
27744;SDS011;61387;48.112;8.616;2023-04-25T14:29:08;3.50;;;1.57;;
27744;SDS011;61387;48.112;8.616;2023-04-25T14:31:36;8.23;;;3.03;;
27744;SDS011;61387;48.112;8.616;2023-04-25T14:34:02;1.30;;;0.77;;
27744;SDS011;61387;48.112;8.616;2023-04-25T14:36:28;4.32;;;1.67;;
27744;SDS011;61387;48.112;8.616;2023-04-25T14:38:55;2.77;;;1.40;;
27744;SDS011;61387;48.112;8.616;2023-04-25T14:41:21;1.90;;;0.90;;
27744;SDS011;61387;48.112;8.616;2023-04-25T14:43:48;1.93;;;0.97;;
27744;SDS011;61387;48.112;8.616;2023-04-25T14:46:13;1.83;;;1.20;;
27744;SDS011;61387;48.112;8.616;2023-04-25T14:48:39;1.43;;;0.93;;
27744;SDS011;61387;48.112;8.616;2023-04-25T14:51:05;1.87;;;1.20;;
27744;SDS011;61387;48.112;8.616;2023-04-25T14:53:31;2.73;;;1.27;;